Time;durP1;ratioP1;P1;durP2;ratioP2;P2;SDS_P1;SDS_P2;PMS_P1;PMS_P2;Temp;Humidity;BMP_temperature;BMP_pressure;BME280_temperature;BME280_humidity;BME280_pressure;Samples;Min_cycle;Max_cycle;Signal;HPM_P1;HPM_P2
2021/06/09 00:00:03;;;;;;;;;9.75;8.50;;;;;16.34;75.74;101993.06;4958253;28;47060;-83
2021/06/09 00:02:29;;;;;;;;;9.75;9.75;;;;;16.29;76.03;101995.84;4957959;28;46979;-83
2021/06/09 00:04:54;;;;;;;;;11.50;11.50;;;;;16.34;74.55;102008.88;4958331;28;46856;-83
2021/06/09 00:07:20;;;;;;;;;12.25;10.00;;;;;16.27;75.19;102002.94;4957724;28;46943;-84
2021/06/09 00:09:45;;;;;;;;;10.00;10.00;;;;;16.25;75.64;102003.88;4957908;28;47398;-83
2021/06/09 00:12:11;;;;;;;;;12.00;9.00;;;;;16.26;75.69;102009.09;4956531;28;46974;-83
2021/06/09 00:14:37;;;;;;;;;9.75;8.50;;;;;16.18;75.61;101992.66;4965751;28;46902;-83
2021/06/09 00:17:02;;;;;;;;;7.75;7.75;;;;;16.15;75.19;101996.25;4958052;28;47835;-83
2021/06/09 00:19:28;;;;;;;;;8.00;8.00;;;;;16.19;74.68;102010.16;4989233;28;48003;-83
2021/06/09 00:21:55;;;;;;;;;9.75;8.50;;;;;16.15;75.13;101996.25;4957908;28;47047;-84
2021/06/09 00:24:22;;;;;;;;;13.00;10.25;;;;;16.13;76.10;101997.19;4957260;28;46771;-83
2021/06/09 00:26:48;;;;;;;;;8.25;8.25;;;;;16.14;75.42;102002.41;4956154;28;49228;-83
2021/06/09 00:29:14;;;;;;;;;9.00;9.00;;;;;16.07;75.34;101997.34;4957754;28;47134;-84
2021/06/09 00:31:40;;;;;;;;;10.00;8.25;;;;;16.03;76.39;101988.66;4954153;28;46885;-83
2021/06/09 00:34:05;;;;;;;;;8.00;7.00;;;;;16.07;75.50;101997.34;4952315;28;46983;-84
2021/06/09 00:36:31;;;;;;;;;11.25;9.75;;;;;16.04;76.08;101991.25;5000724;28;47576;-84
2021/06/09 00:38:57;;;;;;;;;7.50;7.50;;;;;16.02;76.12;101993.06;4958004;28;46949;-84
2021/06/09 00:41:22;;;;;;;;;9.00;8.50;;;;;15.99;75.23;101995.78;4989016;28;46958;-84
2021/06/09 00:43:48;;;;;;;;;6.00;6.00;;;;;15.99;76.68;101994.91;4956491;28;46985;-83
2021/06/09 00:46:14;;;;;;;;;9.75;8.75;;;;;15.93;76.58;101985.44;4952952;28;47164;-84
2021/06/09 00:48:42;;;;;;;;;7.50;7.00;;;;;15.92;75.98;101983.69;4957685;28;47011;-84
2021/06/09 00:51:18;;;;;;;;;7.75;7.00;;;;;15.95;76.49;101995.91;4957467;28;46966;-84
2021/06/09 00:53:49;;;;;;;;;7.75;7.00;;;;;15.83;75.59;101978.69;4958112;28;47047;-85
2021/06/09 00:56:16;;;;;;;;;8.75;8.25;;;;;15.90;76.33;101989.88;4956388;28;47878;-84
2021/06/09 00:58:44;;;;;;;;;7.00;7.00;;;;;15.82;76.28;101983.06;4957398;28;46941;-83
2021/06/09 01:01:13;;;;;;;;;6.50;6.50;;;;;15.85;75.98;101984.75;4957375;28;46963;-84
2021/06/09 01:03:39;;;;;;;;;8.00;7.00;;;;;15.79;76.41;101979.66;4957200;28;47024;-83
2021/06/09 01:06:05;;;;;;;;;9.00;6.00;;;;;15.80;75.49;101987.50;4957317;28;47197;-83
2021/06/09 01:08:38;;;;;;;;;9.50;7.50;;;;;15.80;76.29;101984.00;4957617;28;46947;-84
2021/06/09 01:11:09;;;;;;;;;8.50;7.75;;;;;15.70;75.73;101981.56;4957432;28;46969;-84
2021/06/09 01:13:34;;;;;;;;;6.50;6.00;;;;;15.69;75.00;101979.84;4957666;28;47062;-84
2021/06/09 01:16:00;;;;;;;;;9.00;9.00;;;;;15.66;76.12;101974.66;4947564;28;47198;-84
2021/06/09 01:18:26;;;;;;;;;9.00;9.00;;;;;15.66;76.50;101976.44;4954734;28;47115;-83
2021/06/09 01:20:52;;;;;;;;;8.00;7.00;;;;;15.64;75.53;101979.13;4957108;28;47133;-83
2021/06/09 01:23:19;;;;;;;;;8.25;8.00;;;;;15.59;75.32;101970.47;4957430;28;46949;-84
2021/06/09 01:25:46;;;;;;;;;7.75;7.75;;;;;15.56;76.19;101967.06;4957315;28;47184;-84
2021/06/09 01:28:11;;;;;;;;;10.25;7.75;;;;;15.51;75.90;101964.56;4956929;28;47165;-83
2021/06/09 01:30:38;;;;;;;;;10.00;7.75;;;;;15.48;76.60;101970.75;4951032;28;47162;-84
2021/06/09 01:33:06;;;;;;;;;10.50;9.00;;;;;15.47;76.01;101976.03;4954313;28;46858;-83
2021/06/09 01:35:32;;;;;;;;;8.25;8.25;;;;;15.47;76.26;101978.66;4957519;28;47438;-83
2021/06/09 01:37:58;;;;;;;;;11.00;7.25;;;;;15.39;75.92;101970.09;4960083;28;47066;-84
2021/06/09 01:40:26;;;;;;;;;6.50;6.50;;;;;15.36;75.26;101969.28;4957058;28;47046;-84
2021/06/09 01:42:53;;;;;;;;;7.00;6.75;;;;;15.32;75.42;101972.03;4957105;28;46981;-84
2021/06/09 01:45:23;;;;;;;;;10.50;9.25;;;;;15.29;76.49;101969.47;4955438;28;47323;-84
2021/06/09 01:47:49;;;;;;;;;9.25;8.00;;;;;15.21;76.41;101967.00;4957026;28;47099;-84
2021/06/09 01:50:16;;;;;;;;;10.25;8.75;;;;;15.18;77.17;101964.44;4955319;28;46965;-84
2021/06/09 01:52:43;;;;;;;;;10.75;8.25;;;;;15.15;76.09;101969.78;4956859;28;46995;-84
2021/06/09 01:55:10;;;;;;;;;9.25;9.25;;;;;15.13;76.92;101964.56;4987822;28;48565;-83
2021/06/09 01:57:36;;;;;;;;;10.00;8.00;;;;;15.16;76.92;101977.63;4955173;28;47500;-84
2021/06/09 02:00:06;;;;;;;;;7.00;7.00;;;;;15.07;77.13;101971.72;4956444;28;47150;-84
2021/06/09 02:02:32;;;;;;;;;8.25;8.00;;;;;15.08;76.38;101974.31;4956484;28;46901;-83
2021/06/09 02:04:58;;;;;;;;;7.25;6.50;;;;;15.05;76.74;101966.50;4956551;28;47009;-83
2021/06/09 02:07:23;;;;;;;;;10.25;9.25;;;;;15.03;76.88;101964.81;4956835;28;46943;-84
2021/06/09 02:09:49;;;;;;;;;10.75;7.75;;;;;15.02;76.37;101969.19;4956284;28;47221;-83
2021/06/09 02:12:15;;;;;;;;;9.50;7.00;;;;;14.94;76.77;101968.53;4956538;28;46842;-83
2021/06/09 02:14:42;;;;;;;;;8.00;7.75;;;;;14.96;76.72;101971.97;4956634;28;47111;-83
2021/06/09 02:17:10;;;;;;;;;9.25;9.00;;;;;14.94;76.56;101965.91;4954357;28;47021;-83
2021/06/09 02:19:36;;;;;;;;;11.50;8.50;;;;;14.94;76.79;101966.75;4947127;28;46896;-82
2021/06/09 02:22:04;;;;;;;;;8.75;8.75;;;;;14.92;76.72;101965.94;4956237;28;47224;-82
2021/06/09 02:24:29;;;;;;;;;8.00;8.00;;;;;14.86;76.32;101963.41;4955969;28;47168;-81
2021/06/09 02:26:57;;;;;;;;;9.50;8.75;;;;;14.86;76.92;101968.66;4953829;28;46878;-81
2021/06/09 02:29:22;;;;;;;;;11.00;9.25;;;;;14.86;77.17;101971.28;4954964;28;46955;-81
2021/06/09 02:31:50;;;;;;;;;9.50;7.25;;;;;14.81;77.17;101955.66;4954513;28;47022;-81
2021/06/09 02:34:18;;;;;;;;;13.50;9.75;;;;;14.84;77.41;101959.97;4954970;28;48341;-81
2021/06/09 02:36:44;;;;;;;;;5.50;5.25;;;;;14.75;77.26;101949.69;4989243;28;46944;-81
2021/06/09 02:39:11;;;;;;;;;13.75;8.50;;;;;14.78;76.51;101960.13;4954600;28;47103;-82
2021/06/09 02:41:37;;;;;;;;;8.00;8.00;;;;;14.75;77.35;101958.41;4956403;28;47300;-81
2021/06/09 02:44:05;;;;;;;;;8.25;8.00;;;;;14.76;77.17;101965.41;4956146;28;47796;-81
2021/06/09 02:46:37;;;;;;;;;9.00;6.75;;;;;14.68;77.17;101955.97;4955947;28;47044;-81
2021/06/09 02:49:08;;;;;;;;;8.25;8.00;;;;;14.70;77.37;101964.66;4957794;28;47254;-81
2021/06/09 02:51:42;;;;;;;;;8.75;8.75;;;;;14.63;77.02;101959.53;4959104;28;46871;-81
2021/06/09 02:54:18;;;;;;;;;10.00;9.00;;;;;14.62;77.32;101959.59;4958908;28;46954;-82
2021/06/09 02:56:47;;;;;;;;;9.75;8.25;;;;;14.68;77.39;101971.72;4959130;28;47269;-82
2021/06/09 02:59:34;;;;;;;;;8.25;7.75;;;;;14.65;76.89;101970.88;4957853;28;47107;-82
2021/06/09 03:02:08;;;;;;;;;8.50;8.50;;;;;14.60;76.86;101964.84;4958711;28;46984;-83
2021/06/09 03:04:39;;;;;;;;;9.50;9.00;;;;;14.61;76.85;101965.69;4959002;28;47331;-83
2021/06/09 03:07:37;;;;;;;;;9.00;9.00;;;;;14.59;77.84;101970.97;4958747;28;47187;-83
2021/06/09 03:10:16;;;;;;;;;9.00;8.00;;;;;14.48;77.68;101954.56;4958557;28;47003;-82
2021/06/09 03:12:52;;;;;;;;;8.50;8.50;;;;;14.48;77.44;101965.06;4959215;28;46840;-81
2021/06/09 03:15:49;;;;;;;;;8.00;8.00;;;;;14.52;77.67;101977.25;4945785;28;47051;-84
2021/06/09 03:18:19;;;;;;;;;9.75;8.50;;;;;14.44;77.28;101968.66;4955981;28;46961;-83
2021/06/09 03:20:48;;;;;;;;;12.25;8.00;;;;;14.46;77.29;101975.59;4957543;28;46908;-83
2021/06/09 03:23:24;;;;;;;;;8.75;7.50;;;;;14.37;77.21;101962.69;4958957;28;47070;-84
2021/06/09 03:25:55;;;;;;;;;10.25;7.25;;;;;14.38;77.40;101967.00;4958700;28;47303;-83
2021/06/09 03:28:26;;;;;;;;;9.75;9.00;;;;;14.41;77.61;101971.34;4958960;28;47242;-83
2021/06/09 03:30:57;;;;;;;;;10.00;9.00;;;;;14.30;77.53;101958.44;4955627;28;47031;-83
2021/06/09 03:33:27;;;;;;;;;8.50;7.00;;;;;14.32;77.94;101964.50;4958881;28;47215;-83
2021/06/09 03:36:01;;;;;;;;;10.00;7.25;;;;;14.32;78.31;101968.03;4965898;28;47194;-84
2021/06/09 03:38:41;;;;;;;;;9.25;8.75;;;;;14.32;78.34;101965.41;4958708;28;47068;-83
2021/06/09 03:41:10;;;;;;;;;13.00;10.50;;;;;14.35;78.22;101969.69;4957140;28;46922;-84
2021/06/09 03:43:39;;;;;;;;;10.00;9.00;;;;;14.37;78.18;101977.53;4958683;28;47165;-84
2021/06/09 03:46:07;;;;;;;;;12.25;12.00;;;;;14.27;78.44;101964.59;4947093;28;47094;-84
2021/06/09 03:48:37;;;;;;;;;11.50;9.75;;;;;14.28;78.24;101968.09;4958374;28;46839;-84
2021/06/09 03:51:04;;;;;;;;;13.25;11.25;;;;;14.27;78.13;101967.22;4958489;28;47051;-84
2021/06/09 03:53:33;;;;;;;;;12.50;11.00;;;;;14.25;78.29;101963.78;4958527;28;47164;-84
2021/06/09 03:56:05;;;;;;;;;10.75;10.75;;;;;14.24;78.91;101962.03;4989671;28;48614;-84
2021/06/09 03:58:31;;;;;;;;;9.25;8.50;;;;;14.34;78.41;101972.34;4958109;28;46956;-83
2021/06/09 04:00:59;;;;;;;;;11.50;10.50;;;;;14.34;77.96;101978.50;4954793;28;47082;-83
2021/06/09 04:03:26;;;;;;;;;14.50;11.50;;;;;14.32;78.41;101975.00;4958174;28;46892;-83
2021/06/09 04:05:54;;;;;;;;;13.00;10.50;;;;;14.31;77.89;101968.91;4945443;28;47017;-84
2021/06/09 04:08:20;;;;;;;;;11.25;11.25;;;;;14.25;78.11;101957.66;4958193;28;47018;-83
2021/06/09 04:10:47;;;;;;;;;12.50;11.25;;;;;14.26;78.26;101957.63;4956710;28;47119;-84
2021/06/09 04:13:15;;;;;;;;;13.25;10.25;;;;;14.22;78.06;101958.59;4958507;28;47221;-83
2021/06/09 04:15:41;;;;;;;;;14.25;12.00;;;;;14.30;78.34;101964.53;4957488;28;47896;-83
2021/06/09 04:18:08;;;;;;;;;9.75;9.75;;;;;14.32;79.06;101957.53;4957607;28;47241;-84
2021/06/09 04:20:35;;;;;;;;;14.75;12.00;;;;;14.32;78.80;101956.63;4957358;28;47100;-83
2021/06/09 04:23:02;;;;;;;;;13.25;10.00;;;;;14.36;78.82;101958.31;4955930;28;46925;-83
2021/06/09 04:25:28;;;;;;;;;18.50;13.50;;;;;14.36;78.74;101958.31;4955200;28;47347;-84
2021/06/09 04:27:54;;;;;;;;;12.50;12.25;;;;;14.48;78.63;101972.94;4956067;28;47020;-84
2021/06/09 04:30:22;;;;;;;;;16.50;14.00;;;;;14.45;79.41;101960.75;4952752;28;47004;-82
2021/06/09 04:32:56;;;;;;;;;10.50;10.50;;;;;14.55;79.13;101969.31;4954251;28;47540;-85
2021/06/09 04:35:29;;;;;;;;;14.00;14.00;;;;;14.53;79.24;101963.22;4959277;28;48133;-83
2021/06/09 04:37:55;;;;;;;;;12.25;12.25;;;;;14.58;79.10;101966.59;4966476;28;47091;-83
2021/06/09 04:40:23;;;;;;;;;14.00;14.00;;;;;14.64;79.32;101971.75;4958118;28;47049;-85
2021/06/09 04:42:50;;;;;;;;;15.75;12.75;;;;;14.69;78.77;101978.69;4954501;28;50182;-86
2021/06/09 04:45:17;;;;;;;;;13.50;12.25;;;;;14.70;79.48;101972.53;4957664;28;47079;-86
2021/06/09 04:47:44;;;;;;;;;13.75;12.00;;;;;14.70;79.04;101965.50;4957920;28;46957;-83
2021/06/09 04:50:11;;;;;;;;;13.00;11.00;;;;;14.71;79.49;101966.41;4957499;28;46947;-82
2021/06/09 04:52:37;;;;;;;;;18.75;16.25;;;;;14.81;79.50;101975.81;4958165;28;46987;-81
2021/06/09 04:55:04;;;;;;;;;15.50;13.00;;;;;14.84;79.68;101970.47;4988889;28;48479;-81
2021/06/09 04:57:29;;;;;;;;;18.25;14.75;;;;;14.91;79.44;101979.97;4957724;28;47000;-81
2021/06/09 04:59:55;;;;;;;;;19.75;18.00;;;;;14.94;80.01;101985.13;4957554;28;47100;-84
2021/06/09 05:02:20;;;;;;;;;21.50;18.75;;;;;14.95;79.77;101983.38;4957248;28;46918;-82
2021/06/09 05:04:46;;;;;;;;;22.25;19.75;;;;;14.99;80.09;101983.25;4955593;28;46890;-83
2021/06/09 05:07:12;;;;;;;;;21.75;20.00;;;;;15.00;79.06;101985.00;4957635;28;47295;-84
2021/06/09 05:09:38;;;;;;;;;23.25;20.00;;;;;15.01;79.38;101972.75;4957673;28;46934;-84
2021/06/09 05:12:11;;;;;;;;;23.75;20.25;;;;;15.17;79.16;101995.13;4955669;28;47253;-84
2021/06/09 05:14:54;;;;;;;;;22.25;18.75;;;;;15.23;79.28;101995.88;4957479;28;47741;-83
2021/06/09 05:17:25;;;;;;;;;16.50;15.00;;;;;15.25;79.08;101983.59;4957657;28;47441;-83
2021/06/09 05:19:52;;;;;;;;;17.75;16.50;;;;;15.23;78.71;101980.09;4957169;28;47017;-83
2021/06/09 05:22:26;;;;;;;;;18.50;14.00;;;;;15.36;80.00;101997.31;4957557;28;46951;-84
2021/06/09 05:24:54;;;;;;;;;14.75;14.00;;;;;15.32;79.69;101986.00;4948516;28;47165;-83
2021/06/09 05:27:23;;;;;;;;;18.50;16.25;;;;;15.38;79.31;101992.91;4956040;28;47954;-82
2021/06/09 05:29:50;;;;;;;;;20.00;16.00;;;;;15.42;78.24;101985.78;4956990;28;46971;-83
2021/06/09 05:32:16;;;;;;;;;20.00;18.50;;;;;15.56;77.39;101994.19;4948126;28;47247;-83
2021/06/09 05:34:43;;;;;;;;;16.00;14.75;;;;;15.58;77.26;101981.91;4956932;28;46862;-83
2021/06/09 05:37:10;;;;;;;;;18.75;17.25;;;;;15.69;77.59;101993.00;4981347;28;47011;-82
2021/06/09 05:39:37;;;;;;;;;22.25;18.75;;;;;15.79;76.37;102001.56;4939800;28;47091;-83
2021/06/09 05:42:07;;;;;;;;;20.25;16.25;;;;;15.81;78.10;101991.88;4957244;28;46779;-82
2021/06/09 05:44:32;;;;;;;;;15.75;14.00;;;;;15.93;78.04;101995.94;4955336;28;47144;-81
2021/06/09 05:47:00;;;;;;;;;16.25;14.75;;;;;15.91;78.12;101987.22;4961970;28;47262;-82
2021/06/09 05:49:25;;;;;;;;;16.00;13.00;;;;;16.02;78.87;101995.69;4955857;28;47007;-83
2021/06/09 05:51:52;;;;;;;;;16.50;15.50;;;;;16.01;76.78;101993.97;4955566;28;47290;-83
2021/06/09 05:54:19;;;;;;;;;17.25;16.00;;;;;16.07;77.23;101985.03;4955718;28;48890;-83
2021/06/09 05:56:45;;;;;;;;;20.00;16.75;;;;;16.12;76.31;101990.19;4987992;28;48127;-83
2021/06/09 05:59:15;;;;;;;;;17.75;15.25;;;;;16.18;76.35;101992.66;4988340;28;46971;-83
2021/06/09 06:01:43;;;;;;;;;18.75;17.75;;;;;16.26;76.32;101989.81;4955410;28;47282;-83
2021/06/09 06:04:10;;;;;;;;;16.25;16.25;;;;;16.25;77.61;101980.19;4988044;28;49639;-82
2021/06/09 06:06:37;;;;;;;;;18.50;17.00;;;;;16.34;77.51;101993.97;4943016;28;47866;-82
2021/06/09 06:09:04;;;;;;;;;19.75;16.75;;;;;16.31;78.02;101978.25;4956908;28;46989;-83
2021/06/09 06:11:30;;;;;;;;;26.00;21.50;;;;;16.37;78.11;101990.38;4956872;28;47343;-82
2021/06/09 06:13:55;;;;;;;;;18.25;18.25;;;;;16.44;78.57;101993.69;4988054;28;49260;-82
2021/06/09 06:16:21;;;;;;;;;26.75;23.00;;;;;16.47;77.47;101997.13;4955196;28;47044;-83
2021/06/09 06:18:49;;;;;;;;;26.50;25.00;;;;;16.43;77.34;101986.69;4955248;28;47035;-82
2021/06/09 06:21:18;;;;;;;;;22.75;18.50;;;;;16.50;77.94;101990.88;4956219;28;46890;-83
2021/06/09 06:23:44;;;;;;;;;23.50;22.50;;;;;16.51;78.04;101998.72;4957768;28;46913;-84
2021/06/09 06:26:14;;;;;;;;;25.00;23.00;;;;;16.50;78.29;101990.88;4951692;28;47175;-83
2021/06/09 06:28:41;;;;;;;;;35.00;24.50;;;;;16.51;78.70;101992.59;4955801;28;46843;-83
2021/06/09 06:31:12;;;;;;;;;32.75;26.25;;;;;16.55;78.25;101986.34;4959230;28;47149;-84
2021/06/09 06:33:39;;;;;;;;;26.00;24.25;;;;;16.64;79.33;101998.41;4959124;28;47803;-83
2021/06/09 06:36:06;;;;;;;;;25.00;22.75;;;;;16.60;79.26;101984.44;4991332;28;46913;-83
2021/06/09 06:38:36;;;;;;;;;20.00;20.00;;;;;16.66;79.04;101989.53;4970043;28;46996;-84
2021/06/09 06:41:03;;;;;;;;;37.50;30.00;;;;;16.69;76.88;101993.84;4959413;28;46967;-86
2021/06/09 06:43:29;;;;;;;;;31.25;30.50;;;;;16.75;78.45;101994.53;4957695;28;49648;-87
2021/06/09 06:45:54;;;;;;;;;26.75;25.75;;;;;16.75;78.70;101993.69;4958382;28;47081;-85
2021/06/09 06:48:22;;;;;;;;;33.00;29.00;;;;;16.72;79.02;101985.88;4959252;28;47006;-84
2021/06/09 06:50:48;;;;;;;;;35.75;31.25;;;;;16.79;77.54;101991.81;4959155;28;47076;-84
2021/06/09 06:53:14;;;;;;;;;34.00;30.25;;;;;16.89;77.61;101995.91;4957914;28;48535;-84
2021/06/09 06:55:40;;;;;;;;;40.00;32.75;;;;;16.93;77.15;101989.66;4990322;28;47049;-85
2021/06/09 06:58:07;;;;;;;;;40.25;30.50;;;;;16.91;76.70;101983.59;4959177;28;46964;-85
2021/06/09 07:00:32;;;;;;;;;32.75;28.00;;;;;17.04;76.27;102000.72;4959155;28;46953;-85
2021/06/09 07:03:01;;;;;;;;;37.25;32.75;;;;;17.13;77.69;102004.84;4958598;28;47033;-84
2021/06/09 07:05:29;;;;;;;;;33.25;28.75;;;;;17.13;77.95;101996.06;4958652;28;47349;-85
2021/06/09 07:07:56;;;;;;;;;38.50;31.25;;;;;17.15;78.05;101984.56;4944368;28;47004;-86
2021/06/09 07:10:23;;;;;;;;;34.75;30.00;;;;;17.25;76.46;102007.09;4949198;28;46811;-85
2021/06/09 07:12:49;;;;;;;;;33.75;29.25;;;;;17.25;77.29;101995.69;4958397;28;47015;-87
2021/06/09 07:15:18;;;;;;;;;32.00;28.75;;;;;17.32;78.17;101997.22;4973682;28;47021;-88
2021/06/09 07:17:50;;;;;;;;;42.50;33.00;;;;;17.39;77.47;101996.13;4992910;28;46941;-86
2021/06/09 07:20:22;;;;;;;;;31.00;26.25;;;;;17.44;77.74;101999.44;4957086;28;47365;-82
2021/06/09 07:22:49;;;;;;;;;38.75;33.50;;;;;17.50;75.15;102002.81;4958188;28;47753;-84
2021/06/09 07:25:16;;;;;;;;;42.25;32.75;;;;;17.53;74.89;102000.06;4957133;28;47295;-82
2021/06/09 07:27:44;;;;;;;;;38.75;32.75;;;;;17.62;76.31;102005.03;4949642;28;47418;-85
2021/06/09 07:30:14;;;;;;;;;38.75;33.00;;;;;17.66;75.96;102000.53;4971041;28;47197;-85
2021/06/09 07:32:43;;;;;;;;;44.75;36.00;;;;;17.72;75.26;102001.19;4952245;28;47820;-85
2021/06/09 07:35:11;;;;;;;;;40.00;33.50;;;;;17.85;75.98;102006.91;4958018;28;47337;-83
2021/06/09 07:37:41;;;;;;;;;40.25;33.50;;;;;17.91;75.66;102005.88;4979852;28;47121;-84
2021/06/09 07:40:11;;;;;;;;;39.75;33.50;;;;;17.92;74.66;101999.69;4958778;28;47126;-86
2021/06/09 07:42:42;;;;;;;;;38.25;32.25;;;;;18.00;75.84;102002.91;4953788;28;49271;-82
2021/06/09 07:45:11;;;;;;;;;40.50;31.50;;;;;18.00;76.20;102000.25;4958432;28;47104;-83
2021/06/09 07:47:40;;;;;;;;;42.75;34.75;;;;;18.11;75.30;102003.41;4957040;28;48264;-83
2021/06/09 07:50:12;;;;;;;;;39.75;32.75;;;;;18.20;75.64;102009.28;4958317;28;47313;-84
2021/06/09 07:52:40;;;;;;;;;40.25;34.00;;;;;18.20;75.51;101993.44;4958475;28;48014;-85
2021/06/09 07:55:10;;;;;;;;;41.00;35.75;;;;;18.25;75.61;101988.84;4957008;28;47142;-88
2021/06/09 07:57:39;;;;;;;;;38.50;31.75;;;;;18.27;76.09;101990.50;4956491;28;47129;-82
2021/06/09 08:00:10;;;;;;;;;38.00;33.50;;;;;18.30;76.29;101998.31;4963698;28;46795;-83
2021/06/09 08:02:37;;;;;;;;;31.00;29.50;;;;;18.36;76.66;102009.59;4956126;28;48075;-83
2021/06/09 08:05:05;;;;;;;;;32.25;30.25;;;;;18.37;75.64;102001.59;4957524;28;46840;-86
2021/06/09 08:07:30;;;;;;;;;36.25;31.50;;;;;18.41;74.42;101992.66;4957919;28;47099;-84
2021/06/09 08:09:56;;;;;;;;;36.25;30.50;;;;;18.59;74.15;102019.31;4958076;28;47007;-84
2021/06/09 08:12:23;;;;;;;;;36.75;32.50;;;;;18.60;71.97;102008.69;4956098;28;47081;-87
2021/06/09 08:14:51;;;;;;;;;31.75;28.25;;;;;18.64;74.51;101998.84;4952676;28;46938;-90
2021/06/09 08:17:16;;;;;;;;;30.75;27.75;;;;;18.69;72.90;101994.28;4955582;28;46992;-84
2021/06/09 08:19:42;;;;;;;;;26.50;26.00;;;;;18.78;72.74;102001.84;4963706;28;46836;-88
2021/06/09 08:22:08;;;;;;;;;26.00;25.25;;;;;18.89;72.91;101998.81;4956600;28;48432;-83
2021/06/09 08:24:34;;;;;;;;;22.00;22.00;;;;;18.96;71.02;101999.44;4964019;28;46802;-85
2021/06/09 08:27:03;;;;;;;;;25.75;22.50;;;;;19.06;71.12;102006.09;4965230;28;46851;-83
2021/06/09 08:29:36;;;;;;;;;20.75;19.75;;;;;19.05;69.09;101999.06;4960052;28;46987;-84
2021/06/09 08:32:04;;;;;;;;;21.25;17.50;;;;;19.13;69.77;101990.84;4961012;28;47870;-86
2021/06/09 08:34:30;;;;;;;;;17.50;17.50;;;;;19.22;69.97;101990.47;4957651;28;47352;-85
2021/06/09 08:36:56;;;;;;;;;17.00;15.50;;;;;19.29;68.08;101993.72;4957572;28;47168;-87
2021/06/09 08:39:22;;;;;;;;;20.50;18.75;;;;;19.40;70.87;101998.59;4950914;28;46831;-87
2021/06/09 08:41:49;;;;;;;;;14.75;14.75;;;;;19.36;72.07;101989.91;4956822;28;48101;-86
2021/06/09 08:44:15;;;;;;;;;15.00;14.00;;;;;19.34;68.30;101994.41;4957509;28;47149;-86
2021/06/09 08:46:42;;;;;;;;;14.25;13.50;;;;;19.45;66.89;101986.00;4974132;28;46973;-89
2021/06/09 08:49:09;;;;;;;;;15.75;15.75;;;;;19.51;69.03;101988.44;4959967;28;46973;-86
2021/06/09 08:51:35;;;;;;;;;18.00;15.25;;;;;19.52;67.83;101985.72;5039239;27;48154;-86
2021/06/09 08:54:05;;;;;;;;;13.75;12.75;;;;;19.66;67.34;101994.84;4959751;28;46838;-89
2021/06/09 08:56:32;;;;;;;;;16.00;14.00;;;;;19.70;68.67;101994.66;4958290;28;46941;-87
2021/06/09 08:58:59;;;;;;;;;15.25;11.50;;;;;19.63;70.02;101979.09;4955634;28;47035;-84
2021/06/09 09:01:25;;;;;;;;;12.75;11.25;;;;;19.63;69.17;101989.69;4962395;28;47251;-85
2021/06/09 09:03:52;;;;;;;;;10.75;10.00;;;;;19.72;68.39;101978.72;4956892;28;47093;-86
2021/06/09 09:06:20;;;;;;;;;11.00;11.00;;;;;19.83;66.98;101995.03;4957062;28;47042;-87
2021/06/09 09:08:46;;;;;;;;;10.00;8.25;;;;;19.88;67.41;102000.97;4957755;28;47049;-86
2021/06/09 09:11:12;;;;;;;;;7.00;7.00;;;;;19.87;67.02;101993.97;4957160;28;47200;-86
2021/06/09 09:13:39;;;;;;;;;9.50;7.75;;;;;19.89;68.61;101996.56;4956381;28;47432;-86
2021/06/09 09:16:05;;;;;;;;;12.25;10.25;;;;;19.87;66.68;101998.38;4957337;28;46964;-86
2021/06/09 09:18:45;;;;;;;;;10.25;9.50;;;;;19.95;66.68;102006.88;4952430;28;46995;-83
2021/06/09 09:21:12;;;;;;;;;12.75;10.00;;;;;19.96;67.75;101999.78;4957027;28;47848;-85
2021/06/09 09:23:49;;;;;;;;;10.50;8.75;;;;;20.02;64.81;102015.44;4956827;28;46984;-86
2021/06/09 09:26:31;;;;;;;;;9.75;8.00;;;;;20.09;67.37;102008.06;4957525;28;47298;-87
2021/06/09 09:29:13;;;;;;;;;13.00;10.25;;;;;20.06;68.27;101993.16;4945903;28;47104;-87
2021/06/09 09:31:50;;;;;;;;;9.00;9.00;;;;;20.19;69.13;102012.91;4946011;28;47029;-87
2021/06/09 09:34:43;;;;;;;;;10.50;8.00;;;;;20.13;65.51;101999.91;4957166;28;46951;-87
2021/06/09 09:37:24;;;;;;;;;10.25;10.25;;;;;20.21;65.52;101997.78;4954720;28;47028;-88
2021/06/09 09:40:14;;;;;;;;;7.50;7.50;;;;;20.39;63.09;102016.44;4952209;28;47323;-84
2021/06/09 09:42:42;;;;;;;;;7.00;5.75;;;;;20.44;64.80;102025.03;4994435;28;48022;-86
2021/06/09 09:45:19;;;;;;;;;6.50;6.25;;;;;20.57;63.40;102025.34;4957338;28;47161;-86
2021/06/09 09:48:04;;;;;;;;;7.50;6.50;;;;;20.58;61.10;102016.47;4970097;28;47025;-86
2021/06/09 09:50:41;;;;;;;;;4.00;4.00;;;;;20.65;62.19;102012.59;4956947;28;47288;-86
2021/06/09 09:53:22;;;;;;;;;7.25;5.75;;;;;20.77;61.60;102016.50;4953723;28;46871;-86
2021/06/09 09:56:01;;;;;;;;;4.00;4.00;;;;;20.80;63.93;102024.31;4970890;28;47179;-86
2021/06/09 09:58:28;;;;;;;;;8.00;5.00;;;;;20.73;61.40;102009.63;4946401;28;46964;-88
2021/06/09 10:01:16;;;;;;;;;8.00;6.00;;;;;20.74;63.29;102020.16;4962502;28;47264;-85
2021/06/09 10:03:46;;;;;;;;;3.00;3.00;;;;;20.68;59.30;101996.59;4951179;28;47158;-86
2021/06/09 10:06:25;;;;;;;;;5.75;4.00;;;;;20.77;59.71;102003.25;4974041;28;47070;-84
2021/06/09 10:08:52;;;;;;;;;4.50;4.50;;;;;20.92;56.35;102013.16;4955501;28;46909;-82
2021/06/09 10:11:19;;;;;;;;;7.00;6.00;;;;;20.95;62.68;102006.81;4988185;28;47001;-83
2021/06/09 10:13:46;;;;;;;;;5.25;5.00;;;;;20.97;61.30;102002.31;4956459;28;47790;-83
2021/06/09 10:16:29;;;;;;;;;6.00;5.00;;;;;21.07;63.95;102010.66;4954208;28;47062;-85
2021/06/09 10:19:11;;;;;;;;;5.75;5.00;;;;;20.97;64.25;102004.09;4944357;28;46970;-84
2021/06/09 10:22:15;;;;;;;;;7.00;4.75;;;;;21.01;64.52;102014.50;4955069;28;47227;-84
2021/06/09 10:24:46;;;;;;;;;5.75;4.25;;;;;20.96;62.11;102005.03;4959947;28;47901;-84
2021/06/09 10:27:13;;;;;;;;;5.00;4.25;;;;;21.02;63.58;101999.44;4957764;28;46830;-88
2021/06/09 10:29:39;;;;;;;;;6.00;4.25;;;;;21.06;60.26;102016.94;4948392;28;47180;-87
2021/06/09 10:32:10;;;;;;;;;7.00;4.75;;;;;21.05;60.71;102007.25;4951679;28;46898;-86
2021/06/09 10:34:37;;;;;;;;;4.25;3.75;;;;;21.07;63.37;101993.00;4946164;28;47231;-87
2021/06/09 10:37:07;;;;;;;;;5.00;5.00;;;;;21.21;61.62;102017.97;4957704;28;47172;-87
2021/06/09 10:39:35;;;;;;;;;6.00;4.75;;;;;21.26;60.40;102019.47;4956124;28;47023;-87
2021/06/09 10:42:06;;;;;;;;;6.25;5.50;;;;;21.29;61.46;101997.25;4958429;28;46999;-87
2021/06/09 10:44:35;;;;;;;;;7.00;6.00;;;;;21.30;59.35;101995.44;4956104;28;48032;-87
2021/06/09 10:47:02;;;;;;;;;5.00;4.00;;;;;21.37;61.06;101999.53;4970940;28;47633;-88
2021/06/09 10:49:33;;;;;;;;;7.75;5.50;;;;;21.35;58.23;101990.75;4957420;28;47210;-87
2021/06/09 10:51:59;;;;;;;;;5.00;5.00;;;;;21.36;62.11;101980.09;4957124;28;47032;-85
2021/06/09 10:54:25;;;;;;;;;6.00;4.25;;;;;21.35;63.02;101989.00;4955828;28;47198;-86
2021/06/09 10:56:53;;;;;;;;;4.75;4.00;;;;;21.39;59.94;101995.88;4958101;28;46956;-83
2021/06/09 10:59:24;;;;;;;;;7.25;5.50;;;;;21.37;57.22;101989.75;4955562;28;47139;-83
2021/06/09 11:01:54;;;;;;;;;6.75;6.00;;;;;21.49;60.74;101990.09;4973683;28;47159;-84
2021/06/09 11:04:20;;;;;;;;;5.75;5.75;;;;;21.56;61.46;101987.06;4955428;28;47198;-84
2021/06/09 11:06:51;;;;;;;;;7.00;5.50;;;;;21.56;60.16;101995.03;4970593;28;47050;-86
2021/06/09 11:09:28;;;;;;;;;7.25;5.25;;;;;21.54;61.35;101985.47;5021295;28;46826;-84
2021/06/09 11:12:11;;;;;;;;;5.00;5.00;;;;;21.69;58.10;101994.44;4957869;28;46904;-83
2021/06/09 11:15:01;;;;;;;;;4.00;4.00;;;;;21.76;57.35;101990.53;4958608;28;47941;-84
2021/06/09 11:17:52;;;;;;;;;4.50;4.50;;;;;21.82;55.11;101979.59;4956769;28;47147;-84
2021/06/09 11:20:33;;;;;;;;;4.00;4.00;;;;;21.93;58.56;101990.53;4950454;28;46962;-85
2021/06/09 11:23:24;;;;;;;;;6.25;6.25;;;;;21.94;60.89;101981.59;4957848;28;47231;-85
2021/06/09 11:25:50;;;;;;;;;5.00;5.00;;;;;21.91;56.76;101972.94;4970741;28;49497;-86